createdAt,value
2022-10-29T00:00:55.149Z,101537.06
2022-10-29T00:06:06.176Z,101531.91
2022-10-29T00:11:16.408Z,101532.28
2022-10-29T00:16:20.989Z,101523.72
2022-10-29T00:21:25.128Z,101516.50
2022-10-29T00:26:30.387Z,101515.69
2022-10-29T00:31:32.426Z,101502.41
2022-10-29T00:36:34.451Z,101508.47
2022-10-29T00:41:36.214Z,101502.34
2022-10-29T00:52:02.995Z,101500.44
2022-10-29T00:57:10.754Z,101487.16
2022-10-29T01:02:12.941Z,101488.06
2022-10-29T01:07:14.849Z,101494.00
2022-10-29T01:12:28.459Z,101503.38
2022-10-29T01:17:50.457Z,101503.91
2022-10-29T01:23:13.798Z,101504.94
2022-10-29T01:33:39.683Z,101492.44
2022-10-29T01:38:55.872Z,101490.38
2022-10-29T01:44:06.251Z,101491.94
2022-10-29T01:49:14.327Z,101490.22
2022-10-29T01:54:16.131Z,101485.38
2022-10-29T01:59:28.806Z,101483.13
2022-10-29T02:04:56.803Z,101474.69
2022-10-29T02:10:20.340Z,101461.94
2022-10-29T02:15:27.017Z,101465.31
2022-10-29T02:20:29.434Z,101458.16
2022-10-29T02:25:31.441Z,101456.59
2022-10-29T02:30:33.623Z,101443.06
2022-10-29T02:35:35.354Z,101445.09
2022-10-29T02:40:37.159Z,101445.31
2022-10-29T02:45:38.976Z,101435.81
2022-10-29T02:50:40.885Z,101427.47
2022-10-29T02:55:42.662Z,101421.50
2022-10-29T03:00:44.426Z,101408.78
2022-10-29T03:05:49.021Z,101406.28
2022-10-29T03:10:51.283Z,101389.75
2022-10-29T03:15:53.182Z,101388.69
2022-10-29T03:20:55.027Z,101385.75
2022-10-29T03:25:56.992Z,101391.97
2022-10-29T03:30:59.172Z,101397.44
2022-10-29T03:36:03.182Z,101390.66
2022-10-29T03:41:10.679Z,101366.28
2022-10-29T03:46:12.758Z,101366.91
2022-10-29T03:51:14.623Z,101363.66
2022-10-29T03:56:16.298Z,101361.97
2022-10-29T04:01:18.177Z,101356.75
2022-10-29T04:06:20.039Z,101347.97
2022-10-29T04:11:23.070Z,101321.16
2022-10-29T04:16:25.046Z,101330.19
2022-10-29T04:32:10.803Z,101336.03
2022-10-29T04:37:12.742Z,101337.13
2022-10-29T04:42:14.570Z,101333.00
2022-10-29T04:47:16.518Z,101326.19
2022-10-29T04:52:18.455Z,101338.78
2022-10-29T04:57:20.586Z,101342.16
2022-10-29T05:02:22.296Z,101337.34
2022-10-29T05:07:24.175Z,101334.69
2022-10-29T05:12:26.096Z,101327.75
2022-10-29T05:17:27.874Z,101322.25
2022-10-29T05:22:29.640Z,101304.88
2022-10-29T05:27:31.631Z,101298.88
2022-10-29T05:32:33.421Z,101291.97
2022-10-29T05:37:35.252Z,101285.84
2022-10-29T05:42:38.477Z,101272.81
2022-10-29T05:47:40.785Z,101271.97
2022-10-29T05:52:42.761Z,101284.75
2022-10-29T05:57:44.514Z,101280.06
2022-10-29T06:02:46.492Z,101284.81
2022-10-29T06:07:57.348Z,101287.16
2022-10-29T06:12:59.395Z,101288.50
2022-10-29T06:18:01.156Z,101289.56
2022-10-29T06:23:03.095Z,101295.28
2022-10-29T06:28:10.453Z,101286.19
2022-10-29T06:33:12.175Z,101283.63
2022-10-29T06:38:14.248Z,101287.66
2022-10-29T06:43:15.866Z,101298.19
2022-10-29T06:48:21.659Z,101303.09
2022-10-29T06:53:24.487Z,101297.00
2022-10-29T06:58:26.247Z,101295.28
2022-10-29T07:03:28.248Z,101283.63
2022-10-29T07:08:30.792Z,101283.03
2022-10-29T07:13:32.572Z,101272.16
2022-10-29T07:18:34.569Z,101276.81
2022-10-29T07:23:36.602Z,101271.22
2022-10-29T07:28:38.593Z,101277.00
2022-10-29T07:33:40.387Z,101272.84
2022-10-29T07:38:42.191Z,101277.78
2022-10-29T07:43:43.915Z,101282.59
2022-10-29T07:48:45.733Z,101273.28
2022-10-29T07:53:47.580Z,101274.06
2022-10-29T07:58:49.469Z,101272.09
2022-10-29T08:03:51.609Z,101275.72
2022-10-29T08:08:53.500Z,101268.56
2022-10-29T08:13:55.212Z,101267.31
2022-10-29T08:18:57.252Z,101277.69
2022-10-29T08:23:59.130Z,101272.78
2022-10-29T08:29:00.933Z,101274.22
2022-10-29T08:34:04.991Z,101271.53
2022-10-29T08:39:10.280Z,101269.69
2022-10-29T08:44:46.116Z,101262.56
2022-10-29T08:50:15.243Z,101259.75
2022-10-29T08:55:20.395Z,101259.06
2022-10-29T09:00:25.591Z,101258.88
2022-10-29T09:05:32.768Z,101257.16
2022-10-29T09:10:51.294Z,101259.72
2022-10-29T09:15:57.224Z,101260.63
2022-10-29T09:21:14.155Z,101259.41
2022-10-29T09:26:54.663Z,101261.66
2022-10-29T09:32:09.183Z,101257.41
2022-10-29T09:37:23.278Z,101249.19
2022-10-29T09:42:36.266Z,101260.44
2022-10-29T09:48:10.182Z,101263.53
2022-10-29T09:53:12.036Z,101246.31
2022-10-29T09:58:21.241Z,101251.81
2022-10-29T10:03:45.670Z,101243.84
2022-10-29T10:09:06.376Z,101239.94
2022-10-29T10:14:22.800Z,101242.50
2022-10-29T10:19:30.842Z,101240.88
2022-10-29T10:24:37.552Z,101240.16
2022-10-29T10:29:39.300Z,101240.50
2022-10-29T10:34:41.198Z,101229.88
2022-10-29T10:39:46.026Z,101223.19
2022-10-29T10:44:54.653Z,101230.94
2022-10-29T10:50:12.539Z,101220.31
2022-10-29T10:55:17.481Z,101228.78
2022-10-29T11:00:21.968Z,101222.56
2022-10-29T11:05:32.224Z,101211.81
2022-10-29T11:10:37.741Z,101203.34
2022-10-29T11:15:47.787Z,101191.13
2022-10-29T11:21:03.643Z,101188.72
2022-10-29T11:26:17.726Z,101194.16
2022-10-29T11:31:37.276Z,101191.31
2022-10-29T11:36:49.083Z,101186.25
2022-10-29T11:41:58.027Z,101172.19
2022-10-29T11:47:21.253Z,101168.69
2022-10-29T11:52:35.543Z,101156.16
2022-10-29T11:57:48.949Z,101149.75
2022-10-29T12:03:28.223Z,101152.16
2022-10-29T12:09:00.241Z,101152.41
2022-10-29T12:14:56.049Z,101141.00
2022-10-29T12:20:13.086Z,101139.69
2022-10-29T12:25:33.476Z,101129.50
2022-10-29T12:30:43.517Z,101132.06
2022-10-29T12:36:11.731Z,101124.13
2022-10-29T12:41:24.107Z,101127.94
2022-10-29T12:46:31.605Z,101126.06
2022-10-29T12:51:42.357Z,101123.38
2022-10-29T12:56:47.794Z,101110.91
2022-10-29T13:13:18.530Z,101077.53
2022-10-29T13:18:44.620Z,101075.50
2022-10-29T13:24:04.016Z,101064.44
2022-10-29T13:29:07.640Z,101062.13
2022-10-29T13:34:09.304Z,101057.06
2022-10-29T13:39:18.934Z,101047.81
2022-10-29T13:44:26.352Z,101047.13
2022-10-29T13:49:33.160Z,101047.72
2022-10-29T13:54:47.368Z,101033.09
2022-10-29T13:59:58.492Z,101029.56
2022-10-29T14:05:19.469Z,101035.66
2022-10-29T14:10:34.655Z,101032.22
2022-10-29T14:15:39.359Z,101034.66
2022-10-29T14:20:41.215Z,101025.28
2022-10-29T14:25:42.854Z,101034.72
2022-10-29T14:30:58.445Z,101037.66
2022-10-29T14:36:20.358Z,101044.66
2022-10-29T14:41:24.556Z,101047.59
2022-10-29T14:46:29.289Z,101054.88
2022-10-29T14:51:40.295Z,101062.63
2022-10-29T14:56:42.274Z,101060.72
2022-10-29T15:02:00.840Z,101054.88
2022-10-29T15:07:30.157Z,101051.94
2022-10-29T15:12:37.160Z,101053.63
2022-10-29T15:17:50.389Z,101039.59
2022-10-29T15:22:55.855Z,101039.69
2022-10-29T15:27:58.574Z,101042.16
2022-10-29T15:33:02.919Z,101036.56
2022-10-29T15:38:04.698Z,101027.78
2022-10-29T15:43:29.918Z,101019.94
2022-10-29T15:48:39.635Z,101019.63
2022-10-29T15:53:41.579Z,101006.00
2022-10-29T15:58:43.443Z,101005.63
2022-10-29T16:03:45.157Z,100997.84
2022-10-29T16:08:52.757Z,100992.41
2022-10-29T16:13:55.576Z,100999.59
2022-10-29T16:18:57.486Z,100994.41
2022-10-29T16:23:59.309Z,100985.94
2022-10-29T16:29:00.991Z,100988.69
2022-10-29T16:34:05.426Z,100990.81
2022-10-29T16:39:07.299Z,100983.25
2022-10-29T16:44:09.188Z,100976.38
2022-10-29T16:49:11.046Z,100987.75
2022-10-29T16:54:12.836Z,100978.66
2022-10-29T16:59:14.865Z,100979.44
2022-10-29T17:04:16.664Z,100980.50
2022-10-29T17:09:21.829Z,100970.06
2022-10-29T17:14:27.099Z,100976.84
2022-10-29T17:19:29.547Z,100980.88
2022-10-29T17:24:31.394Z,100986.22
2022-10-29T17:29:36.296Z,100987.53
2022-10-29T17:34:38.380Z,100979.72
2022-10-29T17:39:40.182Z,100986.97
2022-10-29T17:44:42.197Z,100985.06
2022-10-29T17:49:44.060Z,100986.91
2022-10-29T17:54:46.028Z,101001.19
2022-10-29T17:59:47.908Z,100990.03
2022-10-29T18:04:49.707Z,100988.00
2022-10-29T18:09:51.504Z,100995.38
2022-10-29T18:14:53.386Z,100997.56
2022-10-29T18:19:55.167Z,101006.25
2022-10-29T18:24:57.253Z,101008.16
2022-10-29T18:29:59.093Z,101008.06
2022-10-29T18:35:00.999Z,101010.06
2022-10-29T18:40:02.752Z,101017.25
2022-10-29T18:45:04.996Z,101016.09
2022-10-29T18:50:07.161Z,101019.25
2022-10-29T18:55:09.265Z,101016.78
2022-10-29T19:00:11.932Z,101012.28
2022-10-29T19:05:14.023Z,101019.34
2022-10-29T19:10:16.014Z,101030.25
2022-10-29T19:15:17.811Z,101037.03
2022-10-29T19:20:19.894Z,101026.81
2022-10-29T19:25:22.110Z,101025.34
2022-10-29T19:30:23.935Z,101024.41
2022-10-29T19:35:25.759Z,101027.84
2022-10-29T19:40:27.578Z,101028.16
2022-10-29T19:45:29.251Z,101021.75
2022-10-29T19:50:31.031Z,101022.69
2022-10-29T19:55:32.986Z,101017.44
2022-10-29T20:00:34.910Z,101036.72
2022-10-29T20:05:36.682Z,101032.72
2022-10-29T20:10:38.812Z,101042.16
2022-10-29T20:15:41.027Z,101039.41
2022-10-29T20:20:42.914Z,101049.25
2022-10-29T20:25:44.612Z,101035.66
2022-10-29T20:30:46.861Z,101050.88
2022-10-29T20:35:48.684Z,101045.31
2022-10-29T20:40:51.504Z,101045.59
2022-10-29T20:45:53.383Z,101050.41
2022-10-29T20:50:55.485Z,101054.22
2022-10-29T20:55:57.263Z,101050.97
2022-10-29T21:01:10.200Z,101049.72
2022-10-29T21:06:17.023Z,101062.31
2022-10-29T21:11:21.508Z,101067.31
2022-10-29T21:16:26.640Z,101070.81
2022-10-29T21:21:29.864Z,101076.09
2022-10-29T21:26:31.640Z,101075.91
2022-10-29T21:31:33.273Z,101077.22
2022-10-29T21:36:35.242Z,101077.69
2022-10-29T21:41:37.135Z,101082.66
2022-10-29T21:46:38.846Z,101081.09
2022-10-29T21:51:40.724Z,101080.25
2022-10-29T21:56:42.482Z,101084.56
2022-10-29T22:01:44.487Z,101088.97
2022-10-29T22:06:46.442Z,101082.66
2022-10-29T22:11:48.375Z,101083.63
2022-10-29T22:16:50.184Z,101080.16
2022-10-29T22:21:51.959Z,101074.34
2022-10-29T22:26:53.711Z,101085.31
2022-10-29T22:31:55.601Z,101084.19
2022-10-29T22:36:57.587Z,101087.13
2022-10-29T22:41:59.378Z,101092.56
2022-10-29T22:47:01.825Z,101087.44
2022-10-29T22:52:03.795Z,101096.59
2022-10-29T22:57:05.645Z,101093.63
2022-10-29T23:02:07.855Z,101093.81
2022-10-29T23:07:09.848Z,101095.53
2022-10-29T23:12:11.924Z,101096.00
2022-10-29T23:17:19.843Z,101104.44
2022-10-29T23:22:23.387Z,101099.44
2022-10-29T23:27:28.621Z,101109.50
2022-10-29T23:32:30.559Z,101101.56
2022-10-29T23:37:32.392Z,101112.63
2022-10-29T23:42:34.363Z,101113.78
2022-10-29T23:47:36.309Z,101114.66
2022-10-29T23:52:38.137Z,101115.22
2022-10-29T23:57:40.062Z,101106.91
